createdAt,value
2022-12-08T00:01:25.869Z,1.70
2022-12-08T00:03:53.036Z,1.70
2022-12-08T00:06:56.837Z,1.70
2022-12-08T00:09:39.078Z,1.80
2022-12-08T00:12:09.215Z,1.80
2022-12-08T00:14:43.615Z,1.70
2022-12-08T00:17:12.747Z,1.80
2022-12-08T00:19:40.536Z,1.80
2022-12-08T00:22:09.398Z,1.90
2022-12-08T00:24:39.651Z,2.00
2022-12-08T00:27:08.264Z,2.00
2022-12-08T00:29:35.086Z,2.10
2022-12-08T00:32:02.061Z,2.10
2022-12-08T00:34:28.983Z,2.10
2022-12-08T00:36:55.957Z,2.10
2022-12-08T00:39:22.838Z,2.00
2022-12-08T00:42:08.953Z,2.00
2022-12-08T00:44:35.750Z,2.00
2022-12-08T00:47:02.590Z,2.00
2022-12-08T00:49:29.488Z,2.00
2022-12-08T00:51:56.410Z,2.00
2022-12-08T00:54:23.405Z,1.90
2022-12-08T00:56:50.873Z,1.90
2022-12-08T00:59:17.850Z,1.90
2022-12-08T01:01:46.205Z,2.10
2022-12-08T01:04:18.045Z,1.90
2022-12-08T01:06:45.519Z,1.80
2022-12-08T01:09:14.285Z,1.70
2022-12-08T01:11:41.159Z,1.70
2022-12-08T01:14:08.079Z,1.70
2022-12-08T01:16:36.483Z,1.60
2022-12-08T01:19:04.662Z,1.60
2022-12-08T01:21:31.573Z,1.60
2022-12-08T01:24:01.094Z,1.70
2022-12-08T01:26:28.004Z,1.60
2022-12-08T01:28:55.361Z,1.60
2022-12-08T01:31:23.224Z,1.70
2022-12-08T01:33:50.526Z,1.60
2022-12-08T01:36:29.002Z,1.60
2022-12-08T01:38:58.618Z,1.60
2022-12-08T01:41:29.363Z,1.50
2022-12-08T01:44:00.185Z,1.60
2022-12-08T01:46:32.704Z,1.50
2022-12-08T01:49:12.337Z,1.60
2022-12-08T01:51:52.806Z,1.50
2022-12-08T01:54:20.402Z,1.50
2022-12-08T01:56:56.870Z,1.50
2022-12-08T01:59:24.621Z,1.50
2022-12-08T02:01:52.347Z,1.60
2022-12-08T02:04:19.251Z,1.60
2022-12-08T02:06:47.613Z,1.50
2022-12-08T02:09:15.190Z,1.60
2022-12-08T02:11:41.985Z,1.90
2022-12-08T02:14:12.755Z,1.60
2022-12-08T02:16:50.124Z,1.70
2022-12-08T02:20:01.837Z,1.80
2022-12-08T02:22:28.930Z,1.70
2022-12-08T02:25:14.544Z,1.80
2022-12-08T02:28:04.030Z,1.80
2022-12-08T02:30:33.858Z,1.80
2022-12-08T02:33:07.015Z,1.80
2022-12-08T02:35:42.047Z,1.90
2022-12-08T02:38:08.883Z,1.90
2022-12-08T02:41:12.706Z,1.90
2022-12-08T02:43:47.972Z,2.00
2022-12-08T02:46:50.045Z,2.10
2022-12-08T02:49:16.821Z,2.00
2022-12-08T02:51:43.677Z,2.00
2022-12-08T02:54:11.030Z,2.00
2022-12-08T02:57:21.364Z,2.00
2022-12-08T02:59:56.230Z,2.10
2022-12-08T03:03:00.655Z,2.30
2022-12-08T03:05:36.010Z,2.20
2022-12-08T03:08:42.622Z,2.20
2022-12-08T03:11:20.387Z,2.20
2022-12-08T03:13:56.281Z,2.20
2022-12-08T03:16:26.384Z,2.20
2022-12-08T03:19:18.589Z,2.20
2022-12-08T03:21:50.327Z,2.20
2022-12-08T03:24:19.197Z,2.20
2022-12-08T03:26:56.932Z,2.30
2022-12-08T03:29:24.640Z,2.30
2022-12-08T03:31:57.599Z,2.80
2022-12-08T03:34:27.870Z,2.20
2022-12-08T03:36:55.346Z,2.40
2022-12-08T03:39:22.219Z,2.20
2022-12-08T03:41:49.144Z,2.30
2022-12-08T03:44:15.992Z,2.30
2022-12-08T03:46:42.815Z,2.20
2022-12-08T03:49:09.625Z,2.20
2022-12-08T03:51:36.520Z,2.50
2022-12-08T03:54:04.109Z,2.20
2022-12-08T03:56:36.961Z,2.20
2022-12-08T03:59:04.253Z,2.10
2022-12-08T04:01:31.849Z,2.20
2022-12-08T04:03:58.775Z,2.20
2022-12-08T04:06:26.031Z,2.10
2022-12-08T04:08:52.989Z,2.10
2022-12-08T04:11:20.378Z,2.10
2022-12-08T04:13:47.454Z,2.10
2022-12-08T04:16:20.277Z,2.00
2022-12-08T04:18:47.439Z,2.10
2022-12-08T04:21:15.014Z,2.20
2022-12-08T04:23:42.187Z,2.10
2022-12-08T04:26:09.634Z,2.10
2022-12-08T04:28:36.890Z,2.10
2022-12-08T04:31:03.918Z,2.20
2022-12-08T04:33:31.018Z,2.20
2022-12-08T04:35:58.327Z,2.20
2022-12-08T04:38:25.270Z,2.20
2022-12-08T04:40:52.118Z,2.20
2022-12-08T04:43:19.080Z,2.30
2022-12-08T04:45:46.654Z,2.20
2022-12-08T04:48:13.717Z,2.20
2022-12-08T04:50:42.229Z,2.20
2022-12-08T04:53:10.375Z,2.30
2022-12-08T04:55:43.773Z,2.30
2022-12-08T04:58:14.014Z,2.60
2022-12-08T05:00:41.250Z,2.30
2022-12-08T05:03:08.514Z,2.40
2022-12-08T05:05:35.410Z,2.50
2022-12-08T05:08:02.571Z,2.40
2022-12-08T05:10:29.527Z,2.40
2022-12-08T05:12:57.684Z,2.40
2022-12-08T05:15:24.610Z,2.40
2022-12-08T05:17:51.466Z,2.50
2022-12-08T05:20:18.403Z,2.50
2022-12-08T05:22:48.006Z,2.50
2022-12-08T05:25:15.148Z,2.50
2022-12-08T05:27:43.134Z,2.50
2022-12-08T05:30:10.275Z,2.50
2022-12-08T05:32:37.152Z,2.40
2022-12-08T05:35:04.195Z,2.50
2022-12-08T05:37:31.071Z,2.40
2022-12-08T05:39:57.914Z,2.40
2022-12-08T05:42:27.935Z,2.60
2022-12-08T05:44:54.852Z,2.40
2022-12-08T05:47:21.737Z,2.40
2022-12-08T05:49:48.599Z,2.40
2022-12-08T05:52:16.913Z,2.30
2022-12-08T05:54:44.248Z,2.40
2022-12-08T05:57:11.597Z,2.40
2022-12-08T05:59:39.548Z,2.60
2022-12-08T06:02:06.560Z,2.40
2022-12-08T06:04:33.590Z,2.40
2022-12-08T06:07:00.410Z,2.40
2022-12-08T06:09:27.242Z,2.40
2022-12-08T06:11:54.083Z,2.40
2022-12-08T06:14:21.030Z,2.50
2022-12-08T06:16:47.870Z,2.50
2022-12-08T06:19:16.145Z,2.40
2022-12-08T06:21:42.937Z,2.40
2022-12-08T06:24:09.811Z,2.70
2022-12-08T06:26:36.614Z,2.50
2022-12-08T06:29:04.959Z,2.50
2022-12-08T06:31:31.878Z,2.60
2022-12-08T06:33:58.839Z,2.60
2022-12-08T06:36:28.161Z,2.50
2022-12-08T06:38:55.246Z,2.60
2022-12-08T06:41:22.417Z,2.70
2022-12-08T06:43:49.253Z,2.60
2022-12-08T06:46:18.390Z,2.60
2022-12-08T06:48:45.771Z,2.70
2022-12-08T06:51:15.787Z,2.60
2022-12-08T06:53:43.963Z,2.50
2022-12-08T06:56:15.943Z,2.50
2022-12-08T06:58:46.200Z,2.80
2022-12-08T07:01:17.564Z,2.40
2022-12-08T07:03:44.664Z,2.40
2022-12-08T07:06:16.023Z,2.40
2022-12-08T07:08:43.039Z,2.40
2022-12-08T07:11:15.286Z,2.30
2022-12-08T07:13:45.194Z,2.30
2022-12-08T07:16:13.147Z,2.90
2022-12-08T07:18:40.183Z,2.30
2022-12-08T07:21:13.171Z,2.40
2022-12-08T07:23:40.054Z,2.40
2022-12-08T07:26:10.104Z,2.40
2022-12-08T07:28:38.540Z,2.40
2022-12-08T07:31:06.679Z,2.30
2022-12-08T07:33:36.058Z,2.20
2022-12-08T07:36:05.314Z,2.20
2022-12-08T07:38:32.436Z,2.10
2022-12-08T07:40:59.790Z,2.10
2022-12-08T07:43:26.935Z,2.10
2022-12-08T07:45:53.881Z,2.00
2022-12-08T07:48:20.766Z,2.00
2022-12-08T07:50:47.683Z,2.00
2022-12-08T07:53:14.805Z,2.00
2022-12-08T07:55:43.103Z,1.90
2022-12-08T07:58:11.151Z,1.90
2022-12-08T08:00:38.509Z,1.90
2022-12-08T08:03:06.213Z,1.90
2022-12-08T08:05:33.108Z,2.00
2022-12-08T08:08:00.118Z,2.00
2022-12-08T08:10:27.164Z,2.00
2022-12-08T08:12:54.114Z,2.10
2022-12-08T08:15:21.426Z,2.00
2022-12-08T08:17:52.305Z,2.10
2022-12-08T08:20:20.878Z,2.10
2022-12-08T08:22:51.312Z,1.90
2022-12-08T08:25:19.785Z,1.90
2022-12-08T08:27:46.978Z,2.10
2022-12-08T08:30:20.413Z,1.90
2022-12-08T08:32:48.610Z,1.90
2022-12-08T08:35:15.856Z,1.90
2022-12-08T08:37:47.273Z,1.90
2022-12-08T08:40:16.275Z,1.90
2022-12-08T08:42:43.137Z,2.00
2022-12-08T08:45:10.496Z,2.20
2022-12-08T08:47:37.287Z,2.00
2022-12-08T08:50:05.301Z,2.00
2022-12-08T08:52:32.294Z,2.00
2022-12-08T08:54:59.169Z,2.00
2022-12-08T08:57:26.386Z,2.10
2022-12-08T08:59:54.064Z,2.20
2022-12-08T09:02:21.838Z,2.30
2022-12-08T09:04:48.873Z,2.40
2022-12-08T09:07:16.552Z,2.40
2022-12-08T09:09:43.545Z,2.30
2022-12-08T09:12:11.382Z,2.30
2022-12-08T09:14:38.337Z,2.40
2022-12-08T09:17:06.162Z,2.20
2022-12-08T09:19:33.059Z,2.20
2022-12-08T09:21:59.947Z,2.20
2022-12-08T09:24:27.095Z,2.30
2022-12-08T09:26:53.994Z,2.30
2022-12-08T09:29:20.845Z,2.30
2022-12-08T09:31:47.893Z,2.40
2022-12-08T09:34:15.995Z,2.30
2022-12-08T09:36:43.323Z,2.60
2022-12-08T09:39:10.209Z,2.40
2022-12-08T09:41:52.772Z,2.50
2022-12-08T09:44:57.337Z,2.60
2022-12-08T09:47:35.736Z,2.60
2022-12-08T09:50:26.096Z,2.70
2022-12-08T09:53:22.928Z,2.70
2022-12-08T09:55:56.579Z,2.80
2022-12-08T09:58:26.188Z,2.70
2022-12-08T10:00:53.030Z,2.70
2022-12-08T10:03:23.887Z,2.70
2022-12-08T10:06:15.745Z,2.80
2022-12-08T10:08:49.959Z,2.80
2022-12-08T10:11:26.698Z,2.70
2022-12-08T10:14:21.009Z,2.80
2022-12-08T10:16:51.331Z,2.90
2022-12-08T10:19:23.931Z,3.00
2022-12-08T10:21:52.636Z,3.10
2022-12-08T10:24:37.375Z,3.10
2022-12-08T10:27:10.548Z,3.10
2022-12-08T10:29:37.533Z,3.10
2022-12-08T10:32:17.841Z,3.10
2022-12-08T10:35:08.146Z,3.10
2022-12-08T10:37:35.315Z,3.10
2022-12-08T10:40:18.222Z,3.20
2022-12-08T10:42:51.140Z,3.30
2022-12-08T10:45:31.425Z,3.30
2022-12-08T10:48:14.364Z,3.30
2022-12-08T10:50:45.947Z,3.20
2022-12-08T10:53:20.837Z,3.10
2022-12-08T10:55:58.371Z,3.00
2022-12-08T10:58:33.910Z,3.00
2022-12-08T11:01:12.088Z,3.10
2022-12-08T11:03:51.241Z,3.20
2022-12-08T11:06:31.690Z,3.10
2022-12-08T11:09:00.117Z,3.10
2022-12-08T11:11:58.472Z,3.00
2022-12-08T11:14:31.192Z,3.20
2022-12-08T11:17:08.956Z,3.30
2022-12-08T11:19:41.091Z,3.30
2022-12-08T11:22:34.725Z,3.80
2022-12-08T11:25:07.807Z,3.60
2022-12-08T11:27:36.877Z,3.40
2022-12-08T11:30:18.880Z,3.50
2022-12-08T11:33:13.624Z,3.30
2022-12-08T11:35:43.717Z,3.30
2022-12-08T11:38:23.742Z,3.40
2022-12-08T11:41:16.932Z,3.30
2022-12-08T11:43:59.078Z,3.30
2022-12-08T11:46:36.664Z,3.40
2022-12-08T11:49:12.559Z,3.40
2022-12-08T11:51:55.980Z,3.30
2022-12-08T11:54:31.789Z,3.20
2022-12-08T11:57:04.807Z,3.10
2022-12-08T11:59:47.817Z,3.10
2022-12-08T12:02:42.556Z,3.20
2022-12-08T12:08:34.560Z,3.50
2022-12-08T12:11:46.123Z,3.40
2022-12-08T12:14:46.712Z,3.50
2022-12-08T12:17:41.768Z,3.50
2022-12-08T12:20:20.552Z,3.40
2022-12-08T12:22:53.649Z,3.40
2022-12-08T12:25:23.863Z,3.30
2022-12-08T12:27:57.315Z,3.30
2022-12-08T12:30:26.466Z,3.30
2022-12-08T12:33:00.326Z,3.40
2022-12-08T12:35:37.983Z,3.50
2022-12-08T12:38:40.427Z,3.90
2022-12-08T12:41:09.625Z,3.80
2022-12-08T12:43:38.441Z,4.30
2022-12-08T12:46:23.600Z,4.40
2022-12-08T12:48:51.722Z,4.80
2022-12-08T12:51:47.659Z,5.40
2022-12-08T12:54:22.260Z,6.20
2022-12-08T12:56:55.076Z,7.00
2022-12-08T13:00:06.820Z,7.50
2022-12-08T13:02:36.959Z,7.90
2022-12-08T13:05:03.791Z,8.10
2022-12-08T13:07:43.674Z,8.00
2022-12-08T13:10:19.158Z,8.10
2022-12-08T13:13:01.004Z,8.20
2022-12-08T13:15:35.609Z,7.90
2022-12-08T13:18:02.957Z,8.10
2022-12-08T13:20:30.210Z,7.80
2022-12-08T13:23:31.168Z,7.70
2022-12-08T13:26:19.278Z,7.60
2022-12-08T13:29:01.661Z,7.10
2022-12-08T13:31:48.266Z,6.50
2022-12-08T13:34:41.701Z,5.80
2022-12-08T13:37:11.985Z,5.30
2022-12-08T13:40:09.583Z,5.00
2022-12-08T13:42:47.876Z,4.80
2022-12-08T13:45:48.801Z,4.60
2022-12-08T13:48:51.213Z,4.30
2022-12-08T13:57:09.959Z,3.90
2022-12-08T13:59:43.850Z,3.80
2022-12-08T14:02:29.709Z,3.90
2022-12-08T14:07:44.791Z,3.80
2022-12-08T14:10:19.720Z,3.80
2022-12-08T14:12:52.339Z,3.90
2022-12-08T14:15:20.095Z,4.00
2022-12-08T14:17:57.819Z,4.00
2022-12-08T14:20:46.355Z,4.10
2022-12-08T14:23:20.044Z,4.10
2022-12-08T14:25:48.287Z,4.10
2022-12-08T14:28:15.282Z,3.90
2022-12-08T14:30:42.430Z,3.80
2022-12-08T14:33:15.392Z,3.80
2022-12-08T14:35:42.413Z,3.70
2022-12-08T14:38:15.477Z,3.50
2022-12-08T14:41:07.060Z,3.40
2022-12-08T14:43:34.586Z,3.30
2022-12-08T14:46:22.893Z,3.30
2022-12-08T14:48:50.059Z,3.30
2022-12-08T14:51:27.026Z,3.30
2022-12-08T14:54:09.860Z,3.20
2022-12-08T14:56:48.812Z,3.10
2022-12-08T14:59:24.910Z,3.10
2022-12-08T15:01:54.593Z,3.10
2022-12-08T15:04:27.184Z,3.00
2022-12-08T15:07:00.352Z,3.00
2022-12-08T15:09:43.422Z,2.80
2022-12-08T15:12:13.276Z,2.80
2022-12-08T15:14:55.140Z,2.80
2022-12-08T15:17:40.559Z,2.80
2022-12-08T15:20:33.217Z,2.60
2022-12-08T15:23:02.568Z,2.60
2022-12-08T15:25:29.648Z,2.60
2022-12-08T15:27:57.887Z,2.60
2022-12-08T15:30:28.639Z,2.50
2022-12-08T15:32:56.394Z,2.50
2022-12-08T15:35:23.690Z,2.50
2022-12-08T15:37:51.942Z,2.50
2022-12-08T15:40:21.357Z,2.40
2022-12-08T15:42:48.993Z,2.40
2022-12-08T15:45:17.276Z,2.30
2022-12-08T15:47:48.373Z,2.20
2022-12-08T15:50:21.303Z,2.20
2022-12-08T15:52:49.591Z,2.10
2022-12-08T15:55:19.331Z,2.10
2022-12-08T15:58:51.735Z,2.20
2022-12-08T16:00:54.649Z,2.20
2022-12-08T16:09:14.154Z,2.00
2022-12-08T16:12:09.444Z,2.00
2022-12-08T16:17:25.815Z,2.10
2022-12-08T16:19:52.661Z,2.20
2022-12-08T16:25:19.307Z,2.30
2022-12-08T16:30:36.339Z,2.50
2022-12-08T16:33:03.414Z,2.50
2022-12-08T16:35:30.736Z,2.60
2022-12-08T16:37:58.027Z,2.60
2022-12-08T16:40:25.102Z,2.70
2022-12-08T16:42:51.998Z,2.70
2022-12-08T16:45:20.781Z,2.80
2022-12-08T16:47:56.284Z,2.90
2022-12-08T16:50:34.750Z,2.80
2022-12-08T16:53:05.541Z,2.80
2022-12-08T16:55:33.678Z,2.80
2022-12-08T16:58:00.850Z,2.90
2022-12-08T17:00:29.634Z,2.90
2022-12-08T17:02:56.888Z,2.80
2022-12-08T17:05:25.634Z,2.90
2022-12-08T17:07:54.629Z,2.80
2022-12-08T17:10:27.108Z,2.90
2022-12-08T17:12:54.984Z,2.80
2022-12-08T17:15:24.382Z,2.80
2022-12-08T17:17:52.217Z,2.80
2022-12-08T17:20:24.695Z,2.80
2022-12-08T17:22:54.914Z,2.80
2022-12-08T17:25:21.791Z,2.90
2022-12-08T17:27:48.729Z,2.90
2022-12-08T17:30:17.655Z,3.10
2022-12-08T17:32:44.778Z,3.10
2022-12-08T17:35:12.069Z,3.00
2022-12-08T17:37:38.981Z,3.00
2022-12-08T17:40:06.817Z,3.00
2022-12-08T17:42:33.954Z,3.00
2022-12-08T17:45:00.793Z,3.10
2022-12-08T17:47:27.746Z,3.00
2022-12-08T17:49:56.108Z,3.10
2022-12-08T17:52:23.067Z,3.30
2022-12-08T17:54:49.910Z,3.50
2022-12-08T17:57:16.803Z,3.60
2022-12-08T17:59:43.694Z,3.70
2022-12-08T18:02:12.060Z,3.80
2022-12-08T18:04:39.028Z,4.00
2022-12-08T18:07:06.142Z,3.90
2022-12-08T18:09:33.747Z,4.00
2022-12-08T18:12:00.687Z,3.90
2022-12-08T18:14:27.645Z,4.00
2022-12-08T18:16:54.622Z,4.10
2022-12-08T18:19:21.756Z,4.20
2022-12-08T18:21:48.546Z,4.40
2022-12-08T18:24:22.209Z,4.70
2022-12-08T18:26:51.975Z,4.80
2022-12-08T18:29:19.462Z,4.90
2022-12-08T18:31:46.327Z,5.00
2022-12-08T18:34:13.223Z,5.00
2022-12-08T18:36:40.049Z,5.00
2022-12-08T18:39:10.683Z,4.90
2022-12-08T18:41:38.029Z,5.00
2022-12-08T18:44:04.994Z,5.00
2022-12-08T18:46:31.900Z,4.80
2022-12-08T18:48:59.480Z,4.50
2022-12-08T18:51:26.405Z,4.20
2022-12-08T18:53:53.364Z,4.00
2022-12-08T18:56:23.237Z,3.80
2022-12-08T18:58:50.238Z,3.80
2022-12-08T19:01:17.612Z,3.80
2022-12-08T19:04:04.734Z,3.70
2022-12-08T19:06:32.806Z,3.70
2022-12-08T19:08:59.595Z,3.60
2022-12-08T19:11:29.034Z,3.70
2022-12-08T19:13:56.292Z,3.70
2022-12-08T19:16:23.330Z,3.80
2022-12-08T19:18:50.381Z,4.00
2022-12-08T19:21:17.328Z,4.00
2022-12-08T19:23:44.208Z,4.10
2022-12-08T19:26:11.402Z,4.00
2022-12-08T19:28:40.002Z,4.00
2022-12-08T19:31:08.181Z,3.80
2022-12-08T19:33:35.234Z,3.80
2022-12-08T19:36:08.453Z,3.60
2022-12-08T19:38:55.410Z,3.50
2022-12-08T19:41:42.151Z,3.40
2022-12-08T19:44:46.063Z,3.40
2022-12-08T19:47:13.109Z,3.50
2022-12-08T19:49:40.122Z,3.50
2022-12-08T19:52:07.831Z,3.70
2022-12-08T19:54:35.351Z,3.80
2022-12-08T19:57:02.412Z,3.80
2022-12-08T19:59:30.462Z,3.80
2022-12-08T20:01:58.724Z,3.90
2022-12-08T20:04:27.401Z,3.90
2022-12-08T20:06:55.967Z,3.90
2022-12-08T20:09:24.127Z,3.90
2022-12-08T20:11:54.435Z,3.90
2022-12-08T20:14:22.729Z,4.00
2022-12-08T20:16:50.503Z,4.00
2022-12-08T20:19:17.801Z,4.20
2022-12-08T20:21:44.725Z,4.30
2022-12-08T20:24:11.605Z,4.30
2022-12-08T20:26:38.609Z,4.30
2022-12-08T20:29:05.484Z,4.40
2022-12-08T20:31:33.744Z,4.40
2022-12-08T20:34:01.508Z,4.30
2022-12-08T20:36:28.561Z,4.10
2022-12-08T20:38:56.087Z,3.80
2022-12-08T20:41:24.807Z,3.70
2022-12-08T20:43:52.223Z,3.60
2022-12-08T20:46:20.376Z,3.70
2022-12-08T20:48:47.810Z,3.80
2022-12-08T20:51:19.555Z,3.90
2022-12-08T20:53:47.612Z,3.80
2022-12-08T20:56:19.984Z,3.80
2022-12-08T20:58:47.943Z,3.70
2022-12-08T21:01:17.208Z,3.60
2022-12-08T21:03:45.393Z,3.70
2022-12-08T21:06:13.387Z,3.60
2022-12-08T21:08:41.845Z,3.60
2022-12-08T21:11:10.352Z,3.60
2022-12-08T21:13:38.212Z,3.60
2022-12-08T21:16:05.564Z,3.60
2022-12-08T21:18:38.913Z,3.70
2022-12-08T21:21:10.330Z,3.70
2022-12-08T21:23:37.493Z,3.70
2022-12-08T21:26:14.390Z,3.80
2022-12-08T21:28:41.662Z,3.80
2022-12-08T21:31:14.466Z,3.80
2022-12-08T21:33:41.826Z,3.80
2022-12-08T21:36:12.780Z,3.70
2022-12-08T21:38:40.842Z,3.50
2022-12-08T21:41:12.228Z,3.50
2022-12-08T21:43:39.183Z,3.60
2022-12-08T21:46:06.294Z,3.70
2022-12-08T21:48:33.500Z,3.80
2022-12-08T21:51:04.910Z,3.70
2022-12-08T21:53:32.055Z,3.80
2022-12-08T21:55:59.119Z,3.90
2022-12-08T21:58:26.391Z,3.90
2022-12-08T22:00:53.533Z,4.00
2022-12-08T22:03:20.723Z,4.10
2022-12-08T22:05:47.799Z,3.90
2022-12-08T22:08:14.848Z,3.90
2022-12-08T22:10:47.930Z,3.80
2022-12-08T22:13:14.899Z,3.50
2022-12-08T22:15:41.867Z,3.40
2022-12-08T22:18:09.296Z,3.30
2022-12-08T22:20:42.327Z,3.30
2022-12-08T22:23:11.030Z,3.30
2022-12-08T22:25:38.002Z,3.30
2022-12-08T22:28:05.064Z,3.20
2022-12-08T22:30:38.657Z,3.10
2022-12-08T22:33:06.040Z,3.20
2022-12-08T22:35:32.914Z,3.20
2022-12-08T22:37:59.676Z,3.30
2022-12-08T22:40:26.627Z,3.20
2022-12-08T22:42:53.412Z,3.20
2022-12-08T22:45:20.213Z,3.20
2022-12-08T22:47:47.026Z,3.20
2022-12-08T22:50:14.025Z,3.30
2022-12-08T22:52:40.928Z,3.30
2022-12-08T22:55:08.663Z,3.40
2022-12-08T22:57:35.508Z,3.20
2022-12-08T23:00:03.563Z,3.10
2022-12-08T23:02:30.586Z,3.00
2022-12-08T23:04:57.867Z,3.00
2022-12-08T23:07:24.777Z,2.90
2022-12-08T23:09:52.437Z,2.80
2022-12-08T23:12:19.214Z,2.70
2022-12-08T23:14:46.146Z,2.60
2022-12-08T23:17:13.369Z,2.60
2022-12-08T23:19:40.713Z,2.60
2022-12-08T23:22:07.548Z,2.70
2022-12-08T23:24:34.379Z,2.70
2022-12-08T23:27:01.288Z,2.70
2022-12-08T23:29:28.322Z,2.70
2022-12-08T23:31:55.443Z,2.80
2022-12-08T23:34:22.387Z,2.80
2022-12-08T23:36:49.407Z,2.70
2022-12-08T23:39:16.387Z,2.60
2022-12-08T23:41:43.284Z,2.60
2022-12-08T23:44:12.349Z,2.60
2022-12-08T23:46:39.350Z,3.00
2022-12-08T23:49:06.272Z,2.60
2022-12-08T23:51:33.209Z,2.60
2022-12-08T23:54:00.251Z,3.20
2022-12-08T23:56:30.470Z,2.40
2022-12-08T23:58:57.687Z,2.40
